createdAt,value
2023-06-14T00:01:42.874Z,1.40
2023-06-14T00:06:50.280Z,1.63
2023-06-14T00:11:52.304Z,1.45
2023-06-14T00:16:54.561Z,1.40
2023-06-14T00:21:56.762Z,1.60
2023-06-14T00:26:58.863Z,1.13
2023-06-14T00:32:01.111Z,1.45
2023-06-14T00:37:03.388Z,1.00
2023-06-14T00:42:06.762Z,1.50
2023-06-14T00:47:08.710Z,1.38
2023-06-14T00:52:13.779Z,1.30
2023-06-14T00:57:15.861Z,1.23
2023-06-14T01:02:19.458Z,1.08
2023-06-14T01:07:30.739Z,1.48
2023-06-14T01:12:40.451Z,2.05
2023-06-14T01:17:45.136Z,1.33
2023-06-14T01:22:54.982Z,1.70
2023-06-14T01:28:02.883Z,1.30
2023-06-14T01:33:06.734Z,1.20
2023-06-14T01:38:09.430Z,1.80
2023-06-14T01:43:13.005Z,1.45
2023-06-14T01:48:15.872Z,1.75
2023-06-14T01:53:17.975Z,1.20
2023-06-14T01:58:20.160Z,1.05
2023-06-14T02:03:22.868Z,1.35
2023-06-14T02:08:25.168Z,1.60
2023-06-14T02:13:27.275Z,1.30
2023-06-14T02:18:29.699Z,1.13
2023-06-14T02:23:33.718Z,1.63
2023-06-14T02:28:37.410Z,1.92
2023-06-14T02:33:39.550Z,1.60
2023-06-14T02:38:42.607Z,1.48
2023-06-14T02:43:44.670Z,1.70
2023-06-14T02:48:46.612Z,1.65
2023-06-14T02:53:49.108Z,1.60
2023-06-14T02:58:51.998Z,1.48
2023-06-14T03:03:54.143Z,1.30
2023-06-14T03:08:56.451Z,2.10
2023-06-14T03:13:58.800Z,1.23
2023-06-14T03:19:00.828Z,1.83
2023-06-14T03:24:04.930Z,1.40
2023-06-14T03:29:06.956Z,1.60
2023-06-14T03:34:08.971Z,1.50
2023-06-14T03:39:11.050Z,1.67
2023-06-14T03:44:13.097Z,1.55
2023-06-14T03:49:15.308Z,1.35
2023-06-14T03:55:32.086Z,1.33
2023-06-14T03:59:39.337Z,1.95
2023-06-14T04:04:44.807Z,1.70
2023-06-14T04:09:47.723Z,1.85
2023-06-14T04:14:49.881Z,2.05
2023-06-14T04:19:52.076Z,1.95
2023-06-14T04:25:04.468Z,1.92
2023-06-14T04:30:08.799Z,2.20
2023-06-14T04:35:11.866Z,1.88
2023-06-14T04:40:14.004Z,1.75
2023-06-14T04:45:17.195Z,1.85
2023-06-14T04:50:19.712Z,1.80
2023-06-14T04:55:22.401Z,2.10
2023-06-14T05:00:24.877Z,1.85
2023-06-14T05:05:27.031Z,2.13
2023-06-14T05:10:29.173Z,1.90
2023-06-14T05:15:31.468Z,1.75
2023-06-14T05:20:33.562Z,1.90
2023-06-14T05:25:35.764Z,1.75
2023-06-14T05:30:38.806Z,1.60
2023-06-14T05:35:40.791Z,1.58
2023-06-14T05:40:42.808Z,1.67
2023-06-14T05:45:44.968Z,1.40
2023-06-14T05:50:47.276Z,1.58
2023-06-14T05:55:49.571Z,1.65
2023-06-14T06:00:52.274Z,1.48
2023-06-14T06:05:54.220Z,1.52
2023-06-14T06:10:56.357Z,1.50
2023-06-14T06:15:58.532Z,2.13
2023-06-14T06:21:00.605Z,2.75
2023-06-14T06:26:02.754Z,3.22
2023-06-14T06:31:05.265Z,3.53
2023-06-14T06:36:07.926Z,3.60
2023-06-14T06:41:09.991Z,2.97
2023-06-14T06:46:12.144Z,2.80
2023-06-14T06:51:14.792Z,2.72
2023-06-14T06:56:16.868Z,3.13
2023-06-14T07:01:20.240Z,2.78
2023-06-14T07:06:22.880Z,2.63
2023-06-14T07:11:24.780Z,2.53
2023-06-14T07:16:27.215Z,2.53
2023-06-14T07:21:29.331Z,3.42
2023-06-14T07:26:31.690Z,2.28
2023-06-14T07:31:33.674Z,1.98
2023-06-14T07:36:36.099Z,3.03
2023-06-14T07:41:38.203Z,2.20
2023-06-14T07:46:40.305Z,2.88
2023-06-14T07:51:42.177Z,2.33
2023-06-14T07:56:45.500Z,2.35
2023-06-14T08:01:48.534Z,2.85
2023-06-14T08:06:50.857Z,3.28
2023-06-14T08:11:53.099Z,2.55
2023-06-14T08:16:55.339Z,2.47
2023-06-14T08:21:57.705Z,2.40
2023-06-14T08:27:02.776Z,2.67
2023-06-14T08:32:05.118Z,2.55
2023-06-14T08:37:07.946Z,2.05
2023-06-14T08:42:14.806Z,2.75
2023-06-14T08:47:28.177Z,1.88
2023-06-14T08:52:35.135Z,2.60
2023-06-14T08:57:38.927Z,2.30
2023-06-14T09:02:44.767Z,1.90
2023-06-14T09:07:47.168Z,2.22
2023-06-14T09:12:49.826Z,2.58
2023-06-14T09:17:52.954Z,1.95
2023-06-14T09:22:55.362Z,1.88
2023-06-14T09:27:57.347Z,1.90
2023-06-14T09:33:01.829Z,2.38
2023-06-14T09:38:04.107Z,2.05
2023-06-14T09:43:11.652Z,1.70
2023-06-14T09:48:19.402Z,1.60
2023-06-14T09:53:24.525Z,2.03
2023-06-14T09:58:29.873Z,1.98
2023-06-14T10:03:49.879Z,1.27
2023-06-14T10:08:58.894Z,1.80
2023-06-14T10:14:01.767Z,2.33
2023-06-14T10:19:08.416Z,1.40
2023-06-14T10:24:14.521Z,1.35
2023-06-14T10:29:16.826Z,1.48
2023-06-14T10:34:26.420Z,1.38
2023-06-14T10:39:28.637Z,1.35
2023-06-14T10:44:30.356Z,2.10
2023-06-14T10:49:43.457Z,1.70
2023-06-14T10:55:06.415Z,0.93
2023-06-14T11:00:14.820Z,1.05
2023-06-14T11:05:17.555Z,0.70
2023-06-14T11:10:26.940Z,0.80
2023-06-14T11:15:32.625Z,1.23
2023-06-14T11:20:36.801Z,1.67
2023-06-14T11:25:41.380Z,1.30
2023-06-14T11:30:43.602Z,1.17
2023-06-14T11:35:45.809Z,1.15
2023-06-14T11:40:48.060Z,1.30
2023-06-14T11:46:00.720Z,0.90
2023-06-14T11:51:10.216Z,1.20
2023-06-14T11:56:12.734Z,0.90
2023-06-14T12:01:21.093Z,1.10
2023-06-14T12:06:34.679Z,1.13
2023-06-14T12:11:37.697Z,0.90
2023-06-14T12:16:41.557Z,0.90
2023-06-14T12:21:48.687Z,1.02
2023-06-14T12:26:54.111Z,1.23
2023-06-14T12:31:58.337Z,1.00
2023-06-14T12:37:00.776Z,1.13
2023-06-14T12:42:05.434Z,1.20
2023-06-14T12:47:08.065Z,1.40
2023-06-14T12:52:10.334Z,1.40
2023-06-14T12:57:12.635Z,1.33
2023-06-14T13:02:19.294Z,1.40
2023-06-14T13:07:21.479Z,1.17
2023-06-14T13:12:23.510Z,1.25
2023-06-14T13:17:26.241Z,1.38
2023-06-14T13:22:28.388Z,1.13
2023-06-14T13:27:30.536Z,1.00
2023-06-14T13:32:32.978Z,1.10
2023-06-14T13:37:35.096Z,1.00
2023-06-14T13:42:37.578Z,1.00
2023-06-14T13:47:40.241Z,1.10
2023-06-14T13:52:42.416Z,0.88
2023-06-14T13:57:44.919Z,0.70
2023-06-14T14:02:47.120Z,0.77
2023-06-14T14:07:49.377Z,0.82
2023-06-14T14:12:52.351Z,0.70
2023-06-14T14:17:56.114Z,0.75
2023-06-14T14:22:58.430Z,0.50
2023-06-14T14:28:00.381Z,0.77
2023-06-14T14:33:02.392Z,0.70
2023-06-14T14:38:07.119Z,0.75
2023-06-14T14:43:09.292Z,0.70
2023-06-14T14:48:11.512Z,0.82
2023-06-14T14:53:14.607Z,0.50
2023-06-14T14:58:19.838Z,0.95
2023-06-14T15:03:21.977Z,0.77
2023-06-14T15:08:24.090Z,0.80
2023-06-14T15:13:26.245Z,0.60
2023-06-14T15:18:28.373Z,0.68
2023-06-14T15:23:30.520Z,0.80
2023-06-14T15:28:34.087Z,0.70
2023-06-14T15:33:36.197Z,1.05
2023-06-14T15:38:38.255Z,0.95
2023-06-14T15:43:40.283Z,0.90
2023-06-14T15:48:42.259Z,0.73
2023-06-14T15:53:44.388Z,0.70
2023-06-14T15:58:46.445Z,1.23
2023-06-14T16:03:48.474Z,0.80
2023-06-14T16:08:50.922Z,0.80
2023-06-14T16:13:52.851Z,0.85
2023-06-14T16:18:54.912Z,0.63
2023-06-14T16:23:56.833Z,0.50
2023-06-14T16:28:58.838Z,0.73
2023-06-14T16:34:00.931Z,0.68
2023-06-14T16:39:02.922Z,0.88
2023-06-14T16:44:06.514Z,0.93
2023-06-14T16:49:08.586Z,0.80
2023-06-14T16:54:10.844Z,0.90
2023-06-14T16:59:12.899Z,0.77
2023-06-14T17:04:15.029Z,0.60
2023-06-14T17:09:17.867Z,0.60
2023-06-14T17:14:19.942Z,0.90
2023-06-14T17:19:22.131Z,0.80
2023-06-14T17:24:25.907Z,1.13
2023-06-14T17:29:28.635Z,0.80
2023-06-14T17:34:30.701Z,0.68
2023-06-14T17:39:32.619Z,0.98
2023-06-14T17:44:34.704Z,1.17
2023-06-14T17:49:36.685Z,0.80
2023-06-14T17:54:38.748Z,0.80
2023-06-14T17:59:40.954Z,1.25
2023-06-14T18:04:42.785Z,1.00
2023-06-14T18:09:48.393Z,1.33
2023-06-14T18:14:50.707Z,0.80
2023-06-14T18:19:52.788Z,1.10
2023-06-14T18:24:54.730Z,0.90
2023-06-14T18:29:57.270Z,1.02
2023-06-14T18:34:59.273Z,0.90
2023-06-14T18:40:01.645Z,0.98
2023-06-14T18:45:04.007Z,1.25
2023-06-14T18:50:06.521Z,1.00
2023-06-14T18:55:09.005Z,1.38
2023-06-14T19:00:11.479Z,0.90
2023-06-14T19:05:13.628Z,0.90
2023-06-14T19:10:15.840Z,1.05
2023-06-14T19:15:18.660Z,1.20
2023-06-14T19:20:20.924Z,0.80
2023-06-14T19:25:22.963Z,0.98
2023-06-14T19:30:25.226Z,0.98
2023-06-14T19:35:27.357Z,1.33
2023-06-14T19:40:29.260Z,1.10
2023-06-14T19:45:33.857Z,0.90
2023-06-14T19:50:36.602Z,0.90
2023-06-14T19:55:38.522Z,1.08
2023-06-14T20:00:40.661Z,1.10
2023-06-14T20:05:43.263Z,0.88
2023-06-14T20:10:45.366Z,1.20
2023-06-14T20:15:47.607Z,1.33
2023-06-14T20:20:51.659Z,1.25
2023-06-14T20:25:53.625Z,1.17
2023-06-14T20:30:55.534Z,1.38
2023-06-14T20:35:58.474Z,1.50
2023-06-14T20:41:00.531Z,1.15
2023-06-14T20:46:03.425Z,0.75
2023-06-14T20:51:05.348Z,1.40
2023-06-14T20:56:07.893Z,1.17
2023-06-14T21:01:09.960Z,1.35
2023-06-14T21:06:11.784Z,1.35
2023-06-14T21:11:13.691Z,0.90
2023-06-14T21:16:17.271Z,1.13
2023-06-14T21:21:19.241Z,1.20
2023-06-14T21:26:24.232Z,1.00
2023-06-14T21:31:28.524Z,1.02
2023-06-14T21:36:33.545Z,1.20
2023-06-14T21:41:39.321Z,1.10
2023-06-14T21:46:41.653Z,1.27
2023-06-14T21:51:43.658Z,0.73
2023-06-14T21:56:46.294Z,1.15
2023-06-14T22:01:48.300Z,1.00
2023-06-14T22:06:50.301Z,0.93
2023-06-14T22:11:52.569Z,1.20
2023-06-14T22:16:54.612Z,0.90
2023-06-14T22:21:58.974Z,1.10
2023-06-14T22:27:01.105Z,0.80
2023-06-14T22:32:03.281Z,0.70
2023-06-14T22:37:06.421Z,0.93
2023-06-14T22:42:08.610Z,0.90
2023-06-14T22:47:11.770Z,0.77
2023-06-14T22:52:14.964Z,1.15
2023-06-14T22:57:18.208Z,0.50
2023-06-14T23:02:20.623Z,0.73
2023-06-14T23:07:22.738Z,0.80
2023-06-14T23:12:26.550Z,0.95
2023-06-14T23:17:32.176Z,0.77
2023-06-14T23:22:43.128Z,0.98
2023-06-14T23:27:46.980Z,0.77
2023-06-14T23:32:51.097Z,0.80
2023-06-14T23:37:54.827Z,0.77
2023-06-14T23:42:57.888Z,0.80
2023-06-14T23:48:00.069Z,0.77
2023-06-14T23:53:02.382Z,0.70
2023-06-14T23:58:05.011Z,0.80
